sensor_id;sensor_type;location;lat;lon;timestamp;P1;durP1;ratioP1;P2;durP2;ratioP2
68178;SDS011;69812;42.632;23.440;2024-03-02T00:00:11;35.40;;;14.40;;
68178;SDS011;69812;42.632;23.440;2024-03-02T00:02:41;32.33;;;15.57;;
68178;SDS011;69812;42.632;23.440;2024-03-02T00:05:11;36.10;;;16.30;;
68178;SDS011;69812;42.632;23.440;2024-03-02T00:07:37;33.78;;;14.30;;
68178;SDS011;69812;42.632;23.440;2024-03-02T00:10:07;30.42;;;14.05;;
68178;SDS011;69812;42.632;23.440;2024-03-02T00:12:35;33.03;;;14.15;;
68178;SDS011;69812;42.632;23.440;2024-03-02T00:15:01;27.63;;;12.80;;
68178;SDS011;69812;42.632;23.440;2024-03-02T00:17:52;32.97;;;13.95;;
68178;SDS011;69812;42.632;23.440;2024-03-02T00:20:21;30.48;;;12.95;;
68178;SDS011;69812;42.632;23.440;2024-03-02T00:22:48;28.75;;;12.40;;
68178;SDS011;69812;42.632;23.440;2024-03-02T00:25:13;32.90;;;14.07;;
68178;SDS011;69812;42.632;23.440;2024-03-02T00:27:39;33.45;;;13.75;;
68178;SDS011;69812;42.632;23.440;2024-03-02T00:30:06;30.65;;;13.07;;
68178;SDS011;69812;42.632;23.440;2024-03-02T00:32:58;28.50;;;14.55;;
68178;SDS011;69812;42.632;23.440;2024-03-02T00:35:27;33.05;;;13.93;;
68178;SDS011;69812;42.632;23.440;2024-03-02T00:37:52;31.75;;;14.02;;
68178;SDS011;69812;42.632;23.440;2024-03-02T00:40:25;38.00;;;14.48;;
68178;SDS011;69812;42.632;23.440;2024-03-02T00:42:57;34.55;;;14.63;;
68178;SDS011;69812;42.632;23.440;2024-03-02T00:45:22;33.90;;;15.60;;
68178;SDS011;69812;42.632;23.440;2024-03-02T00:47:52;33.33;;;13.98;;
68178;SDS011;69812;42.632;23.440;2024-03-02T00:50:20;34.60;;;15.07;;
68178;SDS011;69812;42.632;23.440;2024-03-02T00:52:46;35.55;;;15.40;;
68178;SDS011;69812;42.632;23.440;2024-03-02T00:55:13;36.75;;;14.52;;
68178;SDS011;69812;42.632;23.440;2024-03-02T00:57:41;37.05;;;14.82;;
68178;SDS011;69812;42.632;23.440;2024-03-02T01:00:09;33.05;;;13.82;;
68178;SDS011;69812;42.632;23.440;2024-03-02T01:02:37;34.65;;;15.73;;
68178;SDS011;69812;42.632;23.440;2024-03-02T01:05:02;33.10;;;14.75;;
68178;SDS011;69812;42.632;23.440;2024-03-02T01:07:30;38.10;;;14.20;;
68178;SDS011;69812;42.632;23.440;2024-03-02T01:09:56;34.17;;;15.07;;
68178;SDS011;69812;42.632;23.440;2024-03-02T01:12:21;32.83;;;14.98;;
68178;SDS011;69812;42.632;23.440;2024-03-02T01:14:46;31.17;;;14.15;;
68178;SDS011;69812;42.632;23.440;2024-03-02T01:17:12;34.72;;;14.18;;
68178;SDS011;69812;42.632;23.440;2024-03-02T01:19:37;36.63;;;14.05;;
68178;SDS011;69812;42.632;23.440;2024-03-02T01:22:04;31.17;;;14.25;;
68178;SDS011;69812;42.632;23.440;2024-03-02T01:24:29;39.95;;;15.20;;
68178;SDS011;69812;42.632;23.440;2024-03-02T01:26:55;34.35;;;13.52;;
68178;SDS011;69812;42.632;23.440;2024-03-02T01:29:21;38.33;;;15.25;;
68178;SDS011;69812;42.632;23.440;2024-03-02T01:31:46;37.25;;;14.75;;
68178;SDS011;69812;42.632;23.440;2024-03-02T01:34:11;33.17;;;13.50;;
68178;SDS011;69812;42.632;23.440;2024-03-02T01:36:42;36.67;;;15.50;;
68178;SDS011;69812;42.632;23.440;2024-03-02T01:39:12;36.72;;;14.80;;
68178;SDS011;69812;42.632;23.440;2024-03-02T01:41:40;40.72;;;15.10;;
68178;SDS011;69812;42.632;23.440;2024-03-02T01:44:05;35.70;;;14.65;;
68178;SDS011;69812;42.632;23.440;2024-03-02T01:46:33;37.38;;;16.13;;
68178;SDS011;69812;42.632;23.440;2024-03-02T01:49:01;37.10;;;15.57;;
68178;SDS011;69812;42.632;23.440;2024-03-02T01:51:27;38.28;;;17.05;;
68178;SDS011;69812;42.632;23.440;2024-03-02T01:53:52;37.03;;;16.92;;
68178;SDS011;69812;42.632;23.440;2024-03-02T01:56:20;39.85;;;17.10;;
68178;SDS011;69812;42.632;23.440;2024-03-02T01:58:45;38.95;;;15.73;;
68178;SDS011;69812;42.632;23.440;2024-03-02T02:01:11;36.63;;;15.68;;
68178;SDS011;69812;42.632;23.440;2024-03-02T02:03:36;41.35;;;17.25;;
68178;SDS011;69812;42.632;23.440;2024-03-02T02:06:02;34.67;;;15.82;;
68178;SDS011;69812;42.632;23.440;2024-03-02T02:08:27;42.20;;;18.13;;
68178;SDS011;69812;42.632;23.440;2024-03-02T02:10:53;41.17;;;16.17;;
68178;SDS011;69812;42.632;23.440;2024-03-02T02:13:18;40.67;;;17.15;;
68178;SDS011;69812;42.632;23.440;2024-03-02T02:15:43;39.80;;;16.80;;
68178;SDS011;69812;42.632;23.440;2024-03-02T02:18:09;41.30;;;16.00;;
68178;SDS011;69812;42.632;23.440;2024-03-02T02:20:36;37.47;;;15.93;;
68178;SDS011;69812;42.632;23.440;2024-03-02T02:23:02;41.30;;;16.55;;
68178;SDS011;69812;42.632;23.440;2024-03-02T02:25:30;38.00;;;15.93;;
68178;SDS011;69812;42.632;23.440;2024-03-02T02:27:56;41.60;;;16.55;;
68178;SDS011;69812;42.632;23.440;2024-03-02T02:30:31;41.40;;;16.70;;
68178;SDS011;69812;42.632;23.440;2024-03-02T02:33:03;39.30;;;15.10;;
68178;SDS011;69812;42.632;23.440;2024-03-02T02:35:31;43.03;;;17.23;;
68178;SDS011;69812;42.632;23.440;2024-03-02T02:37:56;44.90;;;17.00;;
68178;SDS011;69812;42.632;23.440;2024-03-02T02:40:23;44.30;;;17.77;;
68178;SDS011;69812;42.632;23.440;2024-03-02T02:42:48;84.78;;;28.00;;
68178;SDS011;69812;42.632;23.440;2024-03-02T02:45:14;49.08;;;21.35;;
68178;SDS011;69812;42.632;23.440;2024-03-02T02:47:41;40.65;;;16.50;;
68178;SDS011;69812;42.632;23.440;2024-03-02T02:50:07;45.65;;;19.42;;
68178;SDS011;69812;42.632;23.440;2024-03-02T02:52:36;44.90;;;17.25;;
68178;SDS011;69812;42.632;23.440;2024-03-02T02:55:05;41.15;;;16.50;;
68178;SDS011;69812;42.632;23.440;2024-03-02T03:00:11;37.42;;;15.55;;
68178;SDS011;69812;42.632;23.440;2024-03-02T03:02:42;44.63;;;18.55;;
68178;SDS011;69812;42.632;23.440;2024-03-02T03:05:10;42.60;;;16.95;;
68178;SDS011;69812;42.632;23.440;2024-03-02T03:07:36;41.88;;;16.85;;
68178;SDS011;69812;42.632;23.440;2024-03-02T03:10:04;45.25;;;18.50;;
68178;SDS011;69812;42.632;23.440;2024-03-02T03:12:31;42.35;;;16.60;;
68178;SDS011;69812;42.632;23.440;2024-03-02T03:14:57;42.10;;;15.95;;
68178;SDS011;69812;42.632;23.440;2024-03-02T03:17:22;37.50;;;15.10;;
68178;SDS011;69812;42.632;23.440;2024-03-02T03:19:48;39.10;;;17.02;;
68178;SDS011;69812;42.632;23.440;2024-03-02T03:22:14;40.38;;;16.20;;
68178;SDS011;69812;42.632;23.440;2024-03-02T03:24:40;41.42;;;16.38;;
68178;SDS011;69812;42.632;23.440;2024-03-02T03:27:10;44.55;;;20.38;;
68178;SDS011;69812;42.632;23.440;2024-03-02T03:29:39;35.63;;;16.20;;
68178;SDS011;69812;42.632;23.440;2024-03-02T03:32:09;38.83;;;16.45;;
68178;SDS011;69812;42.632;23.440;2024-03-02T03:34:37;38.08;;;18.05;;
68178;SDS011;69812;42.632;23.440;2024-03-02T03:37:02;37.88;;;16.80;;
68178;SDS011;69812;42.632;23.440;2024-03-02T03:39:28;43.95;;;18.60;;
68178;SDS011;69812;42.632;23.440;2024-03-02T03:41:54;35.58;;;16.23;;
68178;SDS011;69812;42.632;23.440;2024-03-02T03:44:22;42.10;;;17.95;;
68178;SDS011;69812;42.632;23.440;2024-03-02T03:46:47;37.70;;;15.18;;
68178;SDS011;69812;42.632;23.440;2024-03-02T03:49:13;39.03;;;15.82;;
68178;SDS011;69812;42.632;23.440;2024-03-02T03:51:38;41.17;;;17.33;;
68178;SDS011;69812;42.632;23.440;2024-03-02T03:54:03;42.85;;;15.93;;
68178;SDS011;69812;42.632;23.440;2024-03-02T03:56:31;40.75;;;15.98;;
68178;SDS011;69812;42.632;23.440;2024-03-02T03:58:57;45.60;;;15.95;;
68178;SDS011;69812;42.632;23.440;2024-03-02T04:01:25;44.20;;;15.93;;
68178;SDS011;69812;42.632;23.440;2024-03-02T04:03:52;38.72;;;16.42;;
68178;SDS011;69812;42.632;23.440;2024-03-02T04:06:23;40.38;;;15.98;;
68178;SDS011;69812;42.632;23.440;2024-03-02T04:08:49;34.60;;;15.68;;
68178;SDS011;69812;42.632;23.440;2024-03-02T04:11:14;39.45;;;15.55;;
68178;SDS011;69812;42.632;23.440;2024-03-02T04:13:40;40.22;;;16.60;;
68178;SDS011;69812;42.632;23.440;2024-03-02T04:16:08;40.60;;;15.80;;
68178;SDS011;69812;42.632;23.440;2024-03-02T04:18:33;40.38;;;16.83;;
68178;SDS011;69812;42.632;23.440;2024-03-02T04:21:01;45.08;;;17.52;;
68178;SDS011;69812;42.632;23.440;2024-03-02T04:23:26;45.15;;;17.92;;
68178;SDS011;69812;42.632;23.440;2024-03-02T04:25:54;40.58;;;17.25;;
68178;SDS011;69812;42.632;23.440;2024-03-02T04:28:29;43.13;;;17.85;;
68178;SDS011;69812;42.632;23.440;2024-03-02T04:31:02;46.55;;;16.23;;
68178;SDS011;69812;42.632;23.440;2024-03-02T04:33:30;50.20;;;18.73;;
68178;SDS011;69812;42.632;23.440;2024-03-02T04:35:55;55.85;;;19.70;;
68178;SDS011;69812;42.632;23.440;2024-03-02T04:38:20;44.38;;;18.48;;
68178;SDS011;69812;42.632;23.440;2024-03-02T04:40:46;36.05;;;15.43;;
68178;SDS011;69812;42.632;23.440;2024-03-02T04:43:13;35.17;;;14.00;;
68178;SDS011;69812;42.632;23.440;2024-03-02T04:45:41;46.25;;;17.05;;
68178;SDS011;69812;42.632;23.440;2024-03-02T04:48:07;37.72;;;15.75;;
68178;SDS011;69812;42.632;23.440;2024-03-02T04:50:33;42.63;;;17.67;;
68178;SDS011;69812;42.632;23.440;2024-03-02T04:53:01;38.33;;;16.25;;
68178;SDS011;69812;42.632;23.440;2024-03-02T04:55:26;38.05;;;16.92;;
68178;SDS011;69812;42.632;23.440;2024-03-02T04:57:54;46.72;;;22.90;;
68178;SDS011;69812;42.632;23.440;2024-03-02T05:00:21;40.67;;;18.13;;
68178;SDS011;69812;42.632;23.440;2024-03-02T05:02:47;34.63;;;14.90;;
68178;SDS011;69812;42.632;23.440;2024-03-02T05:05:12;39.10;;;16.33;;
68178;SDS011;69812;42.632;23.440;2024-03-02T05:07:42;42.00;;;15.55;;
68178;SDS011;69812;42.632;23.440;2024-03-02T05:10:09;48.20;;;17.83;;
68178;SDS011;69812;42.632;23.440;2024-03-02T05:12:37;43.28;;;16.77;;
68178;SDS011;69812;42.632;23.440;2024-03-02T05:15:22;43.15;;;16.92;;
68178;SDS011;69812;42.632;23.440;2024-03-02T05:17:50;42.88;;;16.88;;
68178;SDS011;69812;42.632;23.440;2024-03-02T05:20:16;53.08;;;25.08;;
68178;SDS011;69812;42.632;23.440;2024-03-02T05:22:44;58.17;;;23.65;;
68178;SDS011;69812;42.632;23.440;2024-03-02T05:25:10;47.55;;;21.40;;
68178;SDS011;69812;42.632;23.440;2024-03-02T05:27:35;44.53;;;17.48;;
68178;SDS011;69812;42.632;23.440;2024-03-02T05:30:01;49.58;;;19.92;;
68178;SDS011;69812;42.632;23.440;2024-03-02T05:32:34;41.83;;;17.88;;
68178;SDS011;69812;42.632;23.440;2024-03-02T05:35:00;35.97;;;15.40;;
68178;SDS011;69812;42.632;23.440;2024-03-02T05:37:28;47.28;;;17.70;;
68178;SDS011;69812;42.632;23.440;2024-03-02T05:39:53;44.63;;;16.98;;
68178;SDS011;69812;42.632;23.440;2024-03-02T05:42:21;45.67;;;14.98;;
68178;SDS011;69812;42.632;23.440;2024-03-02T05:44:51;43.88;;;17.88;;
68178;SDS011;69812;42.632;23.440;2024-03-02T05:47:16;37.85;;;15.27;;
68178;SDS011;69812;42.632;23.440;2024-03-02T05:49:42;43.70;;;15.85;;
68178;SDS011;69812;42.632;23.440;2024-03-02T05:52:08;44.25;;;15.70;;
68178;SDS011;69812;42.632;23.440;2024-03-02T05:54:37;45.95;;;15.95;;
68178;SDS011;69812;42.632;23.440;2024-03-02T05:57:03;42.85;;;16.38;;
68178;SDS011;69812;42.632;23.440;2024-03-02T05:59:42;42.25;;;15.30;;
68178;SDS011;69812;42.632;23.440;2024-03-02T06:02:08;38.15;;;14.65;;
68178;SDS011;69812;42.632;23.440;2024-03-02T06:04:34;44.65;;;16.67;;
68178;SDS011;69812;42.632;23.440;2024-03-02T06:06:59;43.60;;;17.58;;
68178;SDS011;69812;42.632;23.440;2024-03-02T06:09:24;43.63;;;16.23;;
68178;SDS011;69812;42.632;23.440;2024-03-02T06:11:52;50.80;;;17.42;;
68178;SDS011;69812;42.632;23.440;2024-03-02T06:14:17;50.55;;;19.17;;
68178;SDS011;69812;42.632;23.440;2024-03-02T06:16:45;74.43;;;26.83;;
68178;SDS011;69812;42.632;23.440;2024-03-02T06:19:10;131.75;;;56.25;;
68178;SDS011;69812;42.632;23.440;2024-03-02T06:21:36;63.88;;;26.45;;
68178;SDS011;69812;42.632;23.440;2024-03-02T06:24:01;65.53;;;26.15;;
68178;SDS011;69812;42.632;23.440;2024-03-02T06:26:30;55.80;;;20.42;;
68178;SDS011;69812;42.632;23.440;2024-03-02T06:28:56;59.88;;;21.33;;
68178;SDS011;69812;42.632;23.440;2024-03-02T06:31:22;55.13;;;19.27;;
68178;SDS011;69812;42.632;23.440;2024-03-02T06:33:47;54.25;;;19.10;;
68178;SDS011;69812;42.632;23.440;2024-03-02T06:36:22;58.85;;;20.23;;
68178;SDS011;69812;42.632;23.440;2024-03-02T06:38:52;51.03;;;19.08;;
68178;SDS011;69812;42.632;23.440;2024-03-02T06:41:17;52.00;;;18.77;;
68178;SDS011;69812;42.632;23.440;2024-03-02T06:43:50;48.50;;;18.05;;
68178;SDS011;69812;42.632;23.440;2024-03-02T06:46:19;46.30;;;17.63;;
68178;SDS011;69812;42.632;23.440;2024-03-02T06:48:44;52.70;;;18.88;;
68178;SDS011;69812;42.632;23.440;2024-03-02T06:51:10;67.63;;;27.42;;
68178;SDS011;69812;42.632;23.440;2024-03-02T06:53:36;56.67;;;19.70;;
68178;SDS011;69812;42.632;23.440;2024-03-02T06:56:01;58.47;;;19.27;;
68178;SDS011;69812;42.632;23.440;2024-03-02T06:58:26;54.30;;;18.77;;
68178;SDS011;69812;42.632;23.440;2024-03-02T07:00:54;59.60;;;20.45;;
68178;SDS011;69812;42.632;23.440;2024-03-02T07:03:22;61.53;;;21.13;;
68178;SDS011;69812;42.632;23.440;2024-03-02T07:05:47;63.60;;;20.65;;
68178;SDS011;69812;42.632;23.440;2024-03-02T07:08:13;54.22;;;17.77;;
68178;SDS011;69812;42.632;23.440;2024-03-02T07:10:38;61.67;;;25.25;;
68178;SDS011;69812;42.632;23.440;2024-03-02T07:13:04;60.33;;;20.60;;
68178;SDS011;69812;42.632;23.440;2024-03-02T07:15:29;55.42;;;18.20;;
68178;SDS011;69812;42.632;23.440;2024-03-02T07:18:13;56.75;;;19.55;;
68178;SDS011;69812;42.632;23.440;2024-03-02T07:20:39;49.17;;;17.35;;
68178;SDS011;69812;42.632;23.440;2024-03-02T07:23:06;60.40;;;20.38;;
68178;SDS011;69812;42.632;23.440;2024-03-02T07:25:32;58.70;;;19.80;;
68178;SDS011;69812;42.632;23.440;2024-03-02T07:27:57;50.88;;;17.90;;
68178;SDS011;69812;42.632;23.440;2024-03-02T07:30:23;52.33;;;17.95;;
68178;SDS011;69812;42.632;23.440;2024-03-02T07:32:50;52.15;;;19.70;;
68178;SDS011;69812;42.632;23.440;2024-03-02T07:35:15;49.33;;;16.98;;
68178;SDS011;69812;42.632;23.440;2024-03-02T07:37:45;47.63;;;14.98;;
68178;SDS011;69812;42.632;23.440;2024-03-02T07:40:11;43.85;;;14.88;;
68178;SDS011;69812;42.632;23.440;2024-03-02T07:42:38;43.20;;;16.13;;
68178;SDS011;69812;42.632;23.440;2024-03-02T07:45:04;45.25;;;16.20;;
68178;SDS011;69812;42.632;23.440;2024-03-02T07:47:30;41.22;;;16.42;;
68178;SDS011;69812;42.632;23.440;2024-03-02T07:49:55;45.25;;;18.48;;
68178;SDS011;69812;42.632;23.440;2024-03-02T07:52:24;46.35;;;17.23;;
68178;SDS011;69812;42.632;23.440;2024-03-02T07:54:49;41.13;;;16.40;;
68178;SDS011;69812;42.632;23.440;2024-03-02T07:57:14;41.03;;;17.35;;
68178;SDS011;69812;42.632;23.440;2024-03-02T07:59:40;43.15;;;18.02;;
68178;SDS011;69812;42.632;23.440;2024-03-02T08:02:06;40.28;;;14.63;;
68178;SDS011;69812;42.632;23.440;2024-03-02T08:04:34;48.45;;;17.33;;
68178;SDS011;69812;42.632;23.440;2024-03-02T08:07:02;42.45;;;16.65;;
68178;SDS011;69812;42.632;23.440;2024-03-02T08:09:28;40.28;;;14.88;;
68178;SDS011;69812;42.632;23.440;2024-03-02T08:11:53;40.42;;;15.43;;
68178;SDS011;69812;42.632;23.440;2024-03-02T08:14:19;38.03;;;15.00;;
68178;SDS011;69812;42.632;23.440;2024-03-02T08:16:44;41.60;;;15.73;;
68178;SDS011;69812;42.632;23.440;2024-03-02T08:19:15;39.72;;;14.35;;
68178;SDS011;69812;42.632;23.440;2024-03-02T08:21:43;35.63;;;14.18;;
68178;SDS011;69812;42.632;23.440;2024-03-02T08:24:09;34.95;;;14.93;;
68178;SDS011;69812;42.632;23.440;2024-03-02T08:26:35;34.20;;;14.70;;
68178;SDS011;69812;42.632;23.440;2024-03-02T08:29:00;39.50;;;15.00;;
68178;SDS011;69812;42.632;23.440;2024-03-02T08:31:29;36.33;;;13.40;;
68178;SDS011;69812;42.632;23.440;2024-03-02T08:33:57;37.35;;;14.52;;
68178;SDS011;69812;42.632;23.440;2024-03-02T08:36:23;35.17;;;14.20;;
68178;SDS011;69812;42.632;23.440;2024-03-02T08:38:51;34.47;;;14.07;;
68178;SDS011;69812;42.632;23.440;2024-03-02T08:41:16;33.95;;;13.40;;
68178;SDS011;69812;42.632;23.440;2024-03-02T08:43:42;30.67;;;13.45;;
68178;SDS011;69812;42.632;23.440;2024-03-02T08:46:12;28.40;;;12.18;;
68178;SDS011;69812;42.632;23.440;2024-03-02T08:48:40;34.75;;;12.98;;
68178;SDS011;69812;42.632;23.440;2024-03-02T08:51:07;33.08;;;13.93;;
68178;SDS011;69812;42.632;23.440;2024-03-02T08:53:35;34.20;;;12.95;;
68178;SDS011;69812;42.632;23.440;2024-03-02T08:56:01;29.70;;;12.93;;
68178;SDS011;69812;42.632;23.440;2024-03-02T08:58:26;29.38;;;12.75;;
68178;SDS011;69812;42.632;23.440;2024-03-02T09:00:52;25.85;;;12.35;;
68178;SDS011;69812;42.632;23.440;2024-03-02T09:03:23;26.13;;;11.25;;
68178;SDS011;69812;42.632;23.440;2024-03-02T09:05:51;23.60;;;11.02;;
68178;SDS011;69812;42.632;23.440;2024-03-02T09:08:16;24.45;;;11.00;;
68178;SDS011;69812;42.632;23.440;2024-03-02T09:10:44;23.92;;;11.18;;
68178;SDS011;69812;42.632;23.440;2024-03-02T09:13:12;26.88;;;11.43;;
68178;SDS011;69812;42.632;23.440;2024-03-02T09:15:39;25.10;;;10.85;;
68178;SDS011;69812;42.632;23.440;2024-03-02T09:18:05;26.77;;;11.82;;
68178;SDS011;69812;42.632;23.440;2024-03-02T09:20:31;26.45;;;10.38;;
68178;SDS011;69812;42.632;23.440;2024-03-02T09:22:57;27.17;;;10.40;;
68178;SDS011;69812;42.632;23.440;2024-03-02T09:25:22;27.50;;;11.70;;
68178;SDS011;69812;42.632;23.440;2024-03-02T09:27:48;25.88;;;10.77;;
68178;SDS011;69812;42.632;23.440;2024-03-02T09:30:13;29.33;;;12.68;;
68178;SDS011;69812;42.632;23.440;2024-03-02T09:32:39;31.98;;;12.82;;
68178;SDS011;69812;42.632;23.440;2024-03-02T09:35:06;32.97;;;14.07;;
68178;SDS011;69812;42.632;23.440;2024-03-02T09:37:32;30.80;;;12.65;;
68178;SDS011;69812;42.632;23.440;2024-03-02T09:40:00;28.90;;;12.48;;
68178;SDS011;69812;42.632;23.440;2024-03-02T09:42:26;31.60;;;12.60;;
68178;SDS011;69812;42.632;23.440;2024-03-02T09:44:51;35.35;;;14.07;;
68178;SDS011;69812;42.632;23.440;2024-03-02T09:47:20;31.13;;;14.10;;
68178;SDS011;69812;42.632;23.440;2024-03-02T09:49:46;36.13;;;15.45;;
68178;SDS011;69812;42.632;23.440;2024-03-02T09:52:13;32.38;;;13.63;;
68178;SDS011;69812;42.632;23.440;2024-03-02T09:54:39;34.00;;;14.65;;
68178;SDS011;69812;42.632;23.440;2024-03-02T09:57:05;31.92;;;14.45;;
68178;SDS011;69812;42.632;23.440;2024-03-02T09:59:33;28.40;;;12.45;;
68178;SDS011;69812;42.632;23.440;2024-03-02T10:01:59;34.88;;;14.68;;
68178;SDS011;69812;42.632;23.440;2024-03-02T10:04:28;32.83;;;13.77;;
68178;SDS011;69812;42.632;23.440;2024-03-02T10:07:13;27.23;;;13.02;;
68178;SDS011;69812;42.632;23.440;2024-03-02T10:09:41;34.55;;;13.63;;
68178;SDS011;69812;42.632;23.440;2024-03-02T10:12:10;30.42;;;13.98;;
68178;SDS011;69812;42.632;23.440;2024-03-02T10:14:40;28.52;;;13.20;;
68178;SDS011;69812;42.632;23.440;2024-03-02T10:17:06;30.38;;;12.88;;
68178;SDS011;69812;42.632;23.440;2024-03-02T10:19:33;27.08;;;12.98;;
68178;SDS011;69812;42.632;23.440;2024-03-02T10:22:00;27.17;;;11.95;;
68178;SDS011;69812;42.632;23.440;2024-03-02T10:24:27;25.90;;;10.23;;
68178;SDS011;69812;42.632;23.440;2024-03-02T10:26:59;20.98;;;10.35;;
68178;SDS011;69812;42.632;23.440;2024-03-02T10:29:24;19.20;;;8.48;;
68178;SDS011;69812;42.632;23.440;2024-03-02T10:31:53;21.77;;;9.07;;
68178;SDS011;69812;42.632;23.440;2024-03-02T10:34:24;19.10;;;9.05;;
68178;SDS011;69812;42.632;23.440;2024-03-02T10:36:51;18.17;;;8.95;;
68178;SDS011;69812;42.632;23.440;2024-03-02T10:39:17;18.75;;;8.95;;
68178;SDS011;69812;42.632;23.440;2024-03-02T10:41:43;14.50;;;7.70;;
68178;SDS011;69812;42.632;23.440;2024-03-02T10:44:09;14.65;;;7.68;;
68178;SDS011;69812;42.632;23.440;2024-03-02T10:46:35;14.30;;;7.13;;
68178;SDS011;69812;42.632;23.440;2024-03-02T10:51:32;17.33;;;8.07;;
68178;SDS011;69812;42.632;23.440;2024-03-02T10:54:01;15.45;;;7.90;;
68178;SDS011;69812;42.632;23.440;2024-03-02T11:01:50;15.60;;;8.35;;
68178;SDS011;69812;42.632;23.440;2024-03-02T11:04:29;16.10;;;7.55;;
68178;SDS011;69812;42.632;23.440;2024-03-02T11:06:59;14.32;;;7.25;;
68178;SDS011;69812;42.632;23.440;2024-03-02T11:09:27;17.52;;;8.00;;
68178;SDS011;69812;42.632;23.440;2024-03-02T11:12:00;17.05;;;8.10;;
68178;SDS011;69812;42.632;23.440;2024-03-02T11:14:30;16.90;;;7.90;;
68178;SDS011;69812;42.632;23.440;2024-03-02T11:17:01;16.58;;;8.57;;
68178;SDS011;69812;42.632;23.440;2024-03-02T11:19:28;15.55;;;8.43;;
68178;SDS011;69812;42.632;23.440;2024-03-02T11:21:59;16.73;;;7.22;;
68178;SDS011;69812;42.632;23.440;2024-03-02T11:27:00;13.23;;;6.53;;
68178;SDS011;69812;42.632;23.440;2024-03-02T11:32:05;12.98;;;6.75;;
68178;SDS011;69812;42.632;23.440;2024-03-02T11:34:34;13.52;;;6.70;;
68178;SDS011;69812;42.632;23.440;2024-03-02T11:37:04;14.65;;;7.13;;
68178;SDS011;69812;42.632;23.440;2024-03-02T11:39:30;14.57;;;7.18;;
68178;SDS011;69812;42.632;23.440;2024-03-02T11:41:59;14.93;;;7.55;;
68178;SDS011;69812;42.632;23.440;2024-03-02T11:44:28;16.75;;;7.88;;
68178;SDS011;69812;42.632;23.440;2024-03-02T11:47:05;14.15;;;7.55;;
68178;SDS011;69812;42.632;23.440;2024-03-02T11:49:45;15.85;;;7.07;;
68178;SDS011;69812;42.632;23.440;2024-03-02T11:52:13;15.05;;;6.97;;
68178;SDS011;69812;42.632;23.440;2024-03-02T11:54:41;15.13;;;7.10;;
68178;SDS011;69812;42.632;23.440;2024-03-02T11:57:18;12.88;;;7.35;;
68178;SDS011;69812;42.632;23.440;2024-03-02T11:59:48;15.65;;;8.35;;
68178;SDS011;69812;42.632;23.440;2024-03-02T12:02:19;15.75;;;7.53;;
68178;SDS011;69812;42.632;23.440;2024-03-02T12:04:45;12.88;;;7.50;;
68178;SDS011;69812;42.632;23.440;2024-03-02T12:07:18;15.48;;;7.43;;
68178;SDS011;69812;42.632;23.440;2024-03-02T12:09:45;18.27;;;8.88;;
68178;SDS011;69812;42.632;23.440;2024-03-02T12:12:10;20.10;;;9.35;;
68178;SDS011;69812;42.632;23.440;2024-03-02T12:14:49;19.58;;;9.13;;
68178;SDS011;69812;42.632;23.440;2024-03-02T12:17:17;19.45;;;9.95;;
68178;SDS011;69812;42.632;23.440;2024-03-02T12:19:43;19.27;;;9.07;;
68178;SDS011;69812;42.632;23.440;2024-03-02T12:22:09;20.77;;;8.98;;
68178;SDS011;69812;42.632;23.440;2024-03-02T12:24:34;18.85;;;8.25;;
68178;SDS011;69812;42.632;23.440;2024-03-02T12:27:00;17.95;;;8.32;;
68178;SDS011;69812;42.632;23.440;2024-03-02T12:29:29;19.67;;;9.20;;
68178;SDS011;69812;42.632;23.440;2024-03-02T12:31:55;17.60;;;9.10;;
68178;SDS011;69812;42.632;23.440;2024-03-02T12:34:21;18.73;;;9.48;;
68178;SDS011;69812;42.632;23.440;2024-03-02T12:36:47;18.58;;;9.05;;
68178;SDS011;69812;42.632;23.440;2024-03-02T12:39:14;19.95;;;9.98;;
68178;SDS011;69812;42.632;23.440;2024-03-02T12:41:43;17.58;;;9.90;;
68178;SDS011;69812;42.632;23.440;2024-03-02T12:44:09;17.40;;;9.40;;
68178;SDS011;69812;42.632;23.440;2024-03-02T12:46:34;17.27;;;9.00;;
68178;SDS011;69812;42.632;23.440;2024-03-02T12:49:09;16.85;;;8.68;;
68178;SDS011;69812;42.632;23.440;2024-03-02T12:51:36;13.73;;;7.78;;
68178;SDS011;69812;42.632;23.440;2024-03-02T12:54:04;18.95;;;8.55;;
68178;SDS011;69812;42.632;23.440;2024-03-02T12:56:30;17.45;;;9.35;;
68178;SDS011;69812;42.632;23.440;2024-03-02T12:58:58;18.67;;;9.13;;
68178;SDS011;69812;42.632;23.440;2024-03-02T13:01:27;17.70;;;7.82;;
68178;SDS011;69812;42.632;23.440;2024-03-02T13:03:56;16.60;;;8.73;;
68178;SDS011;69812;42.632;23.440;2024-03-02T13:06:22;17.15;;;8.60;;
68178;SDS011;69812;42.632;23.440;2024-03-02T13:08:49;16.60;;;8.55;;
68178;SDS011;69812;42.632;23.440;2024-03-02T13:11:15;15.73;;;8.20;;
68178;SDS011;69812;42.632;23.440;2024-03-02T13:13:41;17.80;;;8.95;;
68178;SDS011;69812;42.632;23.440;2024-03-02T13:16:08;16.48;;;8.77;;
68178;SDS011;69812;42.632;23.440;2024-03-02T13:18:41;16.25;;;8.57;;
68178;SDS011;69812;42.632;23.440;2024-03-02T13:21:07;16.40;;;8.00;;
68178;SDS011;69812;42.632;23.440;2024-03-02T13:23:33;15.82;;;8.52;;
68178;SDS011;69812;42.632;23.440;2024-03-02T13:26:01;15.57;;;8.52;;
68178;SDS011;69812;42.632;23.440;2024-03-02T13:28:29;15.98;;;8.88;;
68178;SDS011;69812;42.632;23.440;2024-03-02T13:30:55;17.15;;;8.57;;
68178;SDS011;69812;42.632;23.440;2024-03-02T13:33:23;16.17;;;7.50;;
68178;SDS011;69812;42.632;23.440;2024-03-02T13:35:49;17.05;;;8.52;;
68178;SDS011;69812;42.632;23.440;2024-03-02T13:38:16;19.58;;;8.85;;
68178;SDS011;69812;42.632;23.440;2024-03-02T13:40:42;15.73;;;8.25;;
68178;SDS011;69812;42.632;23.440;2024-03-02T13:43:07;18.13;;;8.80;;
68178;SDS011;69812;42.632;23.440;2024-03-02T13:45:33;14.05;;;7.88;;
68178;SDS011;69812;42.632;23.440;2024-03-02T13:47:59;17.02;;;9.05;;
68178;SDS011;69812;42.632;23.440;2024-03-02T13:50:25;17.08;;;8.82;;
68178;SDS011;69812;42.632;23.440;2024-03-02T13:52:50;15.30;;;9.15;;
68178;SDS011;69812;42.632;23.440;2024-03-02T13:55:16;16.25;;;8.07;;
68178;SDS011;69812;42.632;23.440;2024-03-02T13:57:42;17.20;;;9.20;;
68178;SDS011;69812;42.632;23.440;2024-03-02T14:00:07;15.90;;;8.98;;
68178;SDS011;69812;42.632;23.440;2024-03-02T14:02:35;18.23;;;9.07;;
68178;SDS011;69812;42.632;23.440;2024-03-02T14:05:01;17.30;;;9.98;;
68178;SDS011;69812;42.632;23.440;2024-03-02T14:07:37;16.77;;;9.05;;
68178;SDS011;69812;42.632;23.440;2024-03-02T14:10:03;20.83;;;10.30;;
68178;SDS011;69812;42.632;23.440;2024-03-02T14:12:28;16.85;;;9.40;;
68178;SDS011;69812;42.632;23.440;2024-03-02T14:14:56;19.08;;;9.35;;
68178;SDS011;69812;42.632;23.440;2024-03-02T14:17:27;16.92;;;9.60;;
68178;SDS011;69812;42.632;23.440;2024-03-02T14:19:52;20.77;;;9.80;;
68178;SDS011;69812;42.632;23.440;2024-03-02T14:22:22;18.20;;;9.13;;
68178;SDS011;69812;42.632;23.440;2024-03-02T14:24:47;18.00;;;9.10;;
68178;SDS011;69812;42.632;23.440;2024-03-02T14:27:14;20.25;;;9.60;;